Terminal Aerodrome Forecast
Issued by NWS Paducah, KY

Home | Current Version | Previous Version | Text Only | Print | Product List | Glossary On
Versions: 1 2 3 4 5 6 7 8 9 10 11 12 13 14 15 16 17 18 19 20
371
FTUS43 KPAH 232008 AAC
TAFEVV
TAF AMD
KEVV 232008Z 2320/2418 27005KT P6SM SCT050
     FM240000 31005KT P6SM FEW200
     FM241000 VRB03KT 4SM BR FEW250
     FM241300 VRB03KT P6SM FEW030=

USA.gov is the U.S. government's official web portal to all federal, state and local government web resources and services.